sensor_id;sensor_type;location;lat;lon;timestamp;temperature;humidity
9393;DHT22;4736;52.508;13.422;2024-02-15T00:01:48;8.80;86.00
9393;DHT22;4736;52.508;13.422;2024-02-15T00:04:51;8.80;86.00
9393;DHT22;4736;52.508;13.422;2024-02-15T00:07:55;8.80;86.20
9393;DHT22;4736;52.508;13.422;2024-02-15T00:10:58;8.90;86.10
9393;DHT22;4736;52.508;13.422;2024-02-15T00:14:03;8.90;86.00
9393;DHT22;4736;52.508;13.422;2024-02-15T00:17:09;8.90;85.90
9393;DHT22;4736;52.508;13.422;2024-02-15T00:20:31;8.90;86.00
9393;DHT22;4736;52.508;13.422;2024-02-15T00:23:37;8.80;86.20
9393;DHT22;4736;52.508;13.422;2024-02-15T00:26:49;8.90;86.20
9393;DHT22;4736;52.508;13.422;2024-02-15T00:29:57;8.80;86.20
9393;DHT22;4736;52.508;13.422;2024-02-15T00:33:01;8.90;86.20
9393;DHT22;4736;52.508;13.422;2024-02-15T00:36:05;8.90;86.40
9393;DHT22;4736;52.508;13.422;2024-02-15T00:39:09;8.90;86.20
9393;DHT22;4736;52.508;13.422;2024-02-15T00:42:13;8.90;86.10
9393;DHT22;4736;52.508;13.422;2024-02-15T00:45:19;9.00;86.10
9393;DHT22;4736;52.508;13.422;2024-02-15T00:48:22;9.00;86.00
9393;DHT22;4736;52.508;13.422;2024-02-15T00:51:30;9.00;85.90
9393;DHT22;4736;52.508;13.422;2024-02-15T00:54:33;9.00;85.90
9393;DHT22;4736;52.508;13.422;2024-02-15T00:57:36;9.00;85.90
9393;DHT22;4736;52.508;13.422;2024-02-15T01:00:40;8.90;86.10
9393;DHT22;4736;52.508;13.422;2024-02-15T01:03:44;9.00;86.20
9393;DHT22;4736;52.508;13.422;2024-02-15T01:06:47;9.00;85.90
9393;DHT22;4736;52.508;13.422;2024-02-15T01:09:50;9.00;86.00
9393;DHT22;4736;52.508;13.422;2024-02-15T01:12:53;9.00;85.70
9393;DHT22;4736;52.508;13.422;2024-02-15T01:15:58;9.00;85.80
9393;DHT22;4736;52.508;13.422;2024-02-15T01:19:05;9.00;86.00
9393;DHT22;4736;52.508;13.422;2024-02-15T01:22:09;9.00;86.10
9393;DHT22;4736;52.508;13.422;2024-02-15T01:25:12;9.00;86.00
9393;DHT22;4736;52.508;13.422;2024-02-15T01:28:17;9.00;86.30
9393;DHT22;4736;52.508;13.422;2024-02-15T01:31:22;9.00;86.50
9393;DHT22;4736;52.508;13.422;2024-02-15T01:34:25;9.00;86.40
9393;DHT22;4736;52.508;13.422;2024-02-15T01:37:29;8.90;86.70
9393;DHT22;4736;52.508;13.422;2024-02-15T01:40:33;9.00;86.80
9393;DHT22;4736;52.508;13.422;2024-02-15T01:43:37;9.00;86.50
9393;DHT22;4736;52.508;13.422;2024-02-15T01:46:41;9.00;86.60
9393;DHT22;4736;52.508;13.422;2024-02-15T01:49:45;9.00;86.90
9393;DHT22;4736;52.508;13.422;2024-02-15T01:52:53;9.00;86.90
9393;DHT22;4736;52.508;13.422;2024-02-15T01:55:59;9.00;87.00
9393;DHT22;4736;52.508;13.422;2024-02-15T01:59:03;9.00;86.80
9393;DHT22;4736;52.508;13.422;2024-02-15T02:02:11;9.10;86.50
9393;DHT22;4736;52.508;13.422;2024-02-15T02:05:17;9.00;86.70
9393;DHT22;4736;52.508;13.422;2024-02-15T02:08:23;9.00;87.10
9393;DHT22;4736;52.508;13.422;2024-02-15T02:11:26;9.00;87.20
9393;DHT22;4736;52.508;13.422;2024-02-15T02:14:31;9.00;87.20
9393;DHT22;4736;52.508;13.422;2024-02-15T02:17:35;9.00;87.20
9393;DHT22;4736;52.508;13.422;2024-02-15T02:20:39;9.00;87.10
9393;DHT22;4736;52.508;13.422;2024-02-15T02:23:43;9.10;86.90
9393;DHT22;4736;52.508;13.422;2024-02-15T02:26:51;9.00;86.90
9393;DHT22;4736;52.508;13.422;2024-02-15T02:29:55;9.00;87.10
9393;DHT22;4736;52.508;13.422;2024-02-15T02:32:58;9.00;87.10
9393;DHT22;4736;52.508;13.422;2024-02-15T02:36:02;9.00;87.20
9393;DHT22;4736;52.508;13.422;2024-02-15T02:39:05;9.00;87.40
9393;DHT22;4736;52.508;13.422;2024-02-15T02:42:10;9.00;87.20
9393;DHT22;4736;52.508;13.422;2024-02-15T02:45:15;9.00;87.50
9393;DHT22;4736;52.508;13.422;2024-02-15T02:48:18;9.00;87.50
9393;DHT22;4736;52.508;13.422;2024-02-15T02:51:21;9.10;87.30
9393;DHT22;4736;52.508;13.422;2024-02-15T02:54:24;9.00;87.30
9393;DHT22;4736;52.508;13.422;2024-02-15T02:57:29;9.00;87.40
9393;DHT22;4736;52.508;13.422;2024-02-15T03:00:34;9.10;87.40
9393;DHT22;4736;52.508;13.422;2024-02-15T03:03:37;9.20;87.10
9393;DHT22;4736;52.508;13.422;2024-02-15T03:06:41;9.20;86.80
9393;DHT22;4736;52.508;13.422;2024-02-15T03:09:44;9.20;86.90
9393;DHT22;4736;52.508;13.422;2024-02-15T03:12:51;9.20;86.80
9393;DHT22;4736;52.508;13.422;2024-02-15T03:15:54;9.10;87.00
9393;DHT22;4736;52.508;13.422;2024-02-15T03:18:57;9.20;87.10
9393;DHT22;4736;52.508;13.422;2024-02-15T03:22:01;9.20;87.10
9393;DHT22;4736;52.508;13.422;2024-02-15T03:25:05;9.20;87.00
9393;DHT22;4736;52.508;13.422;2024-02-15T03:28:11;9.10;87.30
9393;DHT22;4736;52.508;13.422;2024-02-15T03:31:14;9.10;87.20
9393;DHT22;4736;52.508;13.422;2024-02-15T03:34:17;9.20;87.30
9393;DHT22;4736;52.508;13.422;2024-02-15T03:37:23;9.20;86.90
9393;DHT22;4736;52.508;13.422;2024-02-15T03:40:26;9.20;87.10
9393;DHT22;4736;52.508;13.422;2024-02-15T03:43:31;9.20;87.30
9393;DHT22;4736;52.508;13.422;2024-02-15T03:46:35;9.20;87.10
9393;DHT22;4736;52.508;13.422;2024-02-15T03:49:39;9.10;87.20
9393;DHT22;4736;52.508;13.422;2024-02-15T03:52:45;9.10;87.50
9393;DHT22;4736;52.508;13.422;2024-02-15T03:55:48;9.20;87.60
9393;DHT22;4736;52.508;13.422;2024-02-15T03:58:56;9.20;87.50
9393;DHT22;4736;52.508;13.422;2024-02-15T04:02:00;9.20;87.40
9393;DHT22;4736;52.508;13.422;2024-02-15T04:05:05;9.20;87.50
9393;DHT22;4736;52.508;13.422;2024-02-15T04:08:10;9.20;87.60
9393;DHT22;4736;52.508;13.422;2024-02-15T04:11:14;9.10;87.60
9393;DHT22;4736;52.508;13.422;2024-02-15T04:14:19;9.10;87.80
9393;DHT22;4736;52.508;13.422;2024-02-15T04:17:22;9.10;87.80
9393;DHT22;4736;52.508;13.422;2024-02-15T04:20:25;9.20;88.00
9393;DHT22;4736;52.508;13.422;2024-02-15T04:23:29;9.20;88.00
9393;DHT22;4736;52.508;13.422;2024-02-15T04:26:32;9.20;88.00
9393;DHT22;4736;52.508;13.422;2024-02-15T04:29:40;9.20;88.00
9393;DHT22;4736;52.508;13.422;2024-02-15T04:32:46;9.20;87.90
9393;DHT22;4736;52.508;13.422;2024-02-15T04:35:51;9.20;87.80
9393;DHT22;4736;52.508;13.422;2024-02-15T04:38:54;9.20;87.80
9393;DHT22;4736;52.508;13.422;2024-02-15T04:41:57;9.20;88.20
9393;DHT22;4736;52.508;13.422;2024-02-15T04:45:03;9.20;88.30
9393;DHT22;4736;52.508;13.422;2024-02-15T04:48:08;9.20;88.20
9393;DHT22;4736;52.508;13.422;2024-02-15T04:51:12;9.20;88.00
9393;DHT22;4736;52.508;13.422;2024-02-15T04:54:15;9.20;88.10
9393;DHT22;4736;52.508;13.422;2024-02-15T04:57:20;9.20;88.00
9393;DHT22;4736;52.508;13.422;2024-02-15T05:00:25;9.20;88.10
9393;DHT22;4736;52.508;13.422;2024-02-15T05:03:28;9.20;88.20
9393;DHT22;4736;52.508;13.422;2024-02-15T05:06:32;9.20;88.20
9393;DHT22;4736;52.508;13.422;2024-02-15T05:09:35;9.20;88.20
9393;DHT22;4736;52.508;13.422;2024-02-15T05:12:38;9.20;88.00
9393;DHT22;4736;52.508;13.422;2024-02-15T05:15:45;9.20;87.90
9393;DHT22;4736;52.508;13.422;2024-02-15T05:18:48;9.30;88.00
9393;DHT22;4736;52.508;13.422;2024-02-15T05:21:52;9.20;87.80
9393;DHT22;4736;52.508;13.422;2024-02-15T05:24:56;9.20;87.70
9393;DHT22;4736;52.508;13.422;2024-02-15T05:28:00;9.20;87.90
9393;DHT22;4736;52.508;13.422;2024-02-15T05:31:12;9.40;88.10
9393;DHT22;4736;52.508;13.422;2024-02-15T05:34:18;9.40;87.90
9393;DHT22;4736;52.508;13.422;2024-02-15T05:37:23;9.40;87.70
9393;DHT22;4736;52.508;13.422;2024-02-15T05:40:26;9.40;87.70
9393;DHT22;4736;52.508;13.422;2024-02-15T05:43:29;9.50;87.30
9393;DHT22;4736;52.508;13.422;2024-02-15T05:46:37;9.40;87.50
9393;DHT22;4736;52.508;13.422;2024-02-15T05:49:42;9.40;87.60
9393;DHT22;4736;52.508;13.422;2024-02-15T05:52:45;9.40;87.50
9393;DHT22;4736;52.508;13.422;2024-02-15T05:55:48;9.40;87.70
9393;DHT22;4736;52.508;13.422;2024-02-15T05:58:51;9.40;87.50
9393;DHT22;4736;52.508;13.422;2024-02-15T06:01:56;9.50;87.50
9393;DHT22;4736;52.508;13.422;2024-02-15T06:04:59;9.40;87.60
9393;DHT22;4736;52.508;13.422;2024-02-15T06:08:05;9.40;87.50
9393;DHT22;4736;52.508;13.422;2024-02-15T06:11:08;9.50;87.60
9393;DHT22;4736;52.508;13.422;2024-02-15T06:14:12;9.50;87.50
9393;DHT22;4736;52.508;13.422;2024-02-15T06:17:17;9.50;87.40
9393;DHT22;4736;52.508;13.422;2024-02-15T06:20:20;9.50;87.50
9393;DHT22;4736;52.508;13.422;2024-02-15T06:23:24;9.50;87.50
9393;DHT22;4736;52.508;13.422;2024-02-15T06:26:28;9.50;87.50
9393;DHT22;4736;52.508;13.422;2024-02-15T06:29:31;9.50;87.40
9393;DHT22;4736;52.508;13.422;2024-02-15T06:32:53;9.50;87.50
9393;DHT22;4736;52.508;13.422;2024-02-15T06:36:14;9.50;87.50
9393;DHT22;4736;52.508;13.422;2024-02-15T06:39:35;9.50;87.60
9393;DHT22;4736;52.508;13.422;2024-02-15T06:42:44;9.50;87.70
9393;DHT22;4736;52.508;13.422;2024-02-15T06:45:47;9.50;87.70
9393;DHT22;4736;52.508;13.422;2024-02-15T06:48:53;9.50;87.40
9393;DHT22;4736;52.508;13.422;2024-02-15T06:51:57;9.60;87.50
9393;DHT22;4736;52.508;13.422;2024-02-15T06:55:01;9.50;87.50
9393;DHT22;4736;52.508;13.422;2024-02-15T06:58:04;9.50;87.60
9393;DHT22;4736;52.508;13.422;2024-02-15T07:01:07;9.50;87.60
9393;DHT22;4736;52.508;13.422;2024-02-15T07:04:50;9.60;87.60
9393;DHT22;4736;52.508;13.422;2024-02-15T07:08:09;9.60;87.50
9393;DHT22;4736;52.508;13.422;2024-02-15T07:11:14;9.60;87.60
9393;DHT22;4736;52.508;13.422;2024-02-15T07:14:17;9.60;87.50
9393;DHT22;4736;52.508;13.422;2024-02-15T07:17:21;9.70;87.60
9393;DHT22;4736;52.508;13.422;2024-02-15T07:20:26;9.60;87.50
9393;DHT22;4736;52.508;13.422;2024-02-15T07:23:29;9.60;87.60
9393;DHT22;4736;52.508;13.422;2024-02-15T07:26:36;9.70;87.70
9393;DHT22;4736;52.508;13.422;2024-02-15T07:29:39;9.70;87.30
9393;DHT22;4736;52.508;13.422;2024-02-15T07:32:42;9.80;87.20
9393;DHT22;4736;52.508;13.422;2024-02-15T07:35:47;9.80;87.20
9393;DHT22;4736;52.508;13.422;2024-02-15T07:38:53;9.80;87.10
9393;DHT22;4736;52.508;13.422;2024-02-15T07:41:59;9.90;87.10
9393;DHT22;4736;52.508;13.422;2024-02-15T07:45:03;9.90;86.70
9393;DHT22;4736;52.508;13.422;2024-02-15T07:48:09;10.00;86.70
9393;DHT22;4736;52.508;13.422;2024-02-15T07:51:15;10.00;86.70
9393;DHT22;4736;52.508;13.422;2024-02-15T07:54:20;10.00;86.60
9393;DHT22;4736;52.508;13.422;2024-02-15T07:57:25;10.00;86.40
9393;DHT22;4736;52.508;13.422;2024-02-15T08:00:28;10.00;86.60
9393;DHT22;4736;52.508;13.422;2024-02-15T08:03:32;10.10;86.60
9393;DHT22;4736;52.508;13.422;2024-02-15T08:06:38;10.10;86.50
9393;DHT22;4736;52.508;13.422;2024-02-15T08:09:42;10.20;86.70
9393;DHT22;4736;52.508;13.422;2024-02-15T08:12:46;10.20;86.30
9393;DHT22;4736;52.508;13.422;2024-02-15T08:15:54;10.40;85.70
9393;DHT22;4736;52.508;13.422;2024-02-15T08:18:57;10.50;85.50
9393;DHT22;4736;52.508;13.422;2024-02-15T08:22:06;10.50;85.50
9393;DHT22;4736;52.508;13.422;2024-02-15T08:25:11;10.60;85.10
9393;DHT22;4736;52.508;13.422;2024-02-15T08:28:16;10.60;84.80
9393;DHT22;4736;52.508;13.422;2024-02-15T08:31:26;10.60;85.00
9393;DHT22;4736;52.508;13.422;2024-02-15T08:34:29;10.60;85.00
9393;DHT22;4736;52.508;13.422;2024-02-15T08:37:34;10.70;84.80
9393;DHT22;4736;52.508;13.422;2024-02-15T08:40:37;10.70;84.70
9393;DHT22;4736;52.508;13.422;2024-02-15T08:43:40;10.70;84.60
9393;DHT22;4736;52.508;13.422;2024-02-15T08:46:44;10.70;84.70
9393;DHT22;4736;52.508;13.422;2024-02-15T08:49:50;10.70;84.40
9393;DHT22;4736;52.508;13.422;2024-02-15T08:52:57;10.80;83.90
9393;DHT22;4736;52.508;13.422;2024-02-15T08:56:00;10.80;83.70
9393;DHT22;4736;52.508;13.422;2024-02-15T08:59:03;10.80;83.90
9393;DHT22;4736;52.508;13.422;2024-02-15T09:02:06;10.80;84.10
9393;DHT22;4736;52.508;13.422;2024-02-15T09:05:10;10.90;84.00
9393;DHT22;4736;52.508;13.422;2024-02-15T09:08:18;10.90;83.70
9393;DHT22;4736;52.508;13.422;2024-02-15T09:11:23;10.90;83.70
9393;DHT22;4736;52.508;13.422;2024-02-15T09:14:31;11.00;84.00
9393;DHT22;4736;52.508;13.422;2024-02-15T09:17:35;11.00;83.80
9393;DHT22;4736;52.508;13.422;2024-02-15T09:20:41;11.10;83.60
9393;DHT22;4736;52.508;13.422;2024-02-15T09:23:48;11.30;83.30
9393;DHT22;4736;52.508;13.422;2024-02-15T09:26:52;11.40;83.50
9393;DHT22;4736;52.508;13.422;2024-02-15T09:29:55;11.50;82.10
9393;DHT22;4736;52.508;13.422;2024-02-15T09:32:58;11.50;82.10
9393;DHT22;4736;52.508;13.422;2024-02-15T09:36:02;11.40;82.00
9393;DHT22;4736;52.508;13.422;2024-02-15T09:39:07;11.40;82.00
9393;DHT22;4736;52.508;13.422;2024-02-15T09:42:10;11.50;81.60
9393;DHT22;4736;52.508;13.422;2024-02-15T09:45:14;11.40;81.60
9393;DHT22;4736;52.508;13.422;2024-02-15T09:48:19;11.40;81.80
9393;DHT22;4736;52.508;13.422;2024-02-15T09:51:26;11.30;82.20
9393;DHT22;4736;52.508;13.422;2024-02-15T09:54:33;11.30;82.10
9393;DHT22;4736;52.508;13.422;2024-02-15T09:57:36;11.20;82.50
9393;DHT22;4736;52.508;13.422;2024-02-15T10:00:39;11.30;82.60
9393;DHT22;4736;52.508;13.422;2024-02-15T10:03:44;11.30;82.50
9393;DHT22;4736;52.508;13.422;2024-02-15T10:06:47;11.40;82.30
9393;DHT22;4736;52.508;13.422;2024-02-15T10:09:52;11.40;82.40
9393;DHT22;4736;52.508;13.422;2024-02-15T10:12:59;11.40;82.40
9393;DHT22;4736;52.508;13.422;2024-02-15T10:16:15;11.40;82.50
9393;DHT22;4736;52.508;13.422;2024-02-15T10:19:18;11.50;82.30
9393;DHT22;4736;52.508;13.422;2024-02-15T10:22:24;11.60;82.10
9393;DHT22;4736;52.508;13.422;2024-02-15T10:25:29;11.70;81.70
9393;DHT22;4736;52.508;13.422;2024-02-15T10:28:32;11.80;81.40
9393;DHT22;4736;52.508;13.422;2024-02-15T10:31:36;11.90;81.40
9393;DHT22;4736;52.508;13.422;2024-02-15T10:34:43;11.90;81.20
9393;DHT22;4736;52.508;13.422;2024-02-15T10:37:48;11.90;81.00
9393;DHT22;4736;52.508;13.422;2024-02-15T10:41:02;12.00;80.60
9393;DHT22;4736;52.508;13.422;2024-02-15T10:44:07;11.90;81.10
9393;DHT22;4736;52.508;13.422;2024-02-15T10:47:10;12.00;81.00
9393;DHT22;4736;52.508;13.422;2024-02-15T10:50:14;12.10;80.50
9393;DHT22;4736;52.508;13.422;2024-02-15T10:53:22;12.20;80.40
9393;DHT22;4736;52.508;13.422;2024-02-15T10:56:34;12.30;79.80
9393;DHT22;4736;52.508;13.422;2024-02-15T10:59:43;12.30;80.10
9393;DHT22;4736;52.508;13.422;2024-02-15T11:03:00;12.40;79.50
9393;DHT22;4736;52.508;13.422;2024-02-15T11:06:05;12.50;79.30
9393;DHT22;4736;52.508;13.422;2024-02-15T11:09:11;12.50;79.30
9393;DHT22;4736;52.508;13.422;2024-02-15T11:12:17;12.50;79.00
9393;DHT22;4736;52.508;13.422;2024-02-15T11:15:40;12.60;79.40
9393;DHT22;4736;52.508;13.422;2024-02-15T11:18:47;12.60;78.90
9393;DHT22;4736;52.508;13.422;2024-02-15T11:21:54;12.80;78.70
9393;DHT22;4736;52.508;13.422;2024-02-15T11:24:58;12.70;79.20
9393;DHT22;4736;52.508;13.422;2024-02-15T11:28:40;12.80;78.90
9393;DHT22;4736;52.508;13.422;2024-02-15T11:31:55;12.80;78.90
9393;DHT22;4736;52.508;13.422;2024-02-15T11:35:05;12.70;79.00
9393;DHT22;4736;52.508;13.422;2024-02-15T11:38:27;12.80;78.70
9393;DHT22;4736;52.508;13.422;2024-02-15T11:41:31;12.80;78.30
9393;DHT22;4736;52.508;13.422;2024-02-15T11:44:36;12.80;78.40
9393;DHT22;4736;52.508;13.422;2024-02-15T11:47:40;12.80;78.20
9393;DHT22;4736;52.508;13.422;2024-02-15T11:50:46;12.80;78.50
9393;DHT22;4736;52.508;13.422;2024-02-15T11:54:01;12.70;78.40
9393;DHT22;4736;52.508;13.422;2024-02-15T11:57:07;12.60;78.60
9393;DHT22;4736;52.508;13.422;2024-02-15T12:00:23;12.50;79.10
9393;DHT22;4736;52.508;13.422;2024-02-15T12:03:45;12.50;79.20
9393;DHT22;4736;52.508;13.422;2024-02-15T12:07:08;12.50;79.10
9393;DHT22;4736;52.508;13.422;2024-02-15T12:10:29;12.50;79.40
9393;DHT22;4736;52.508;13.422;2024-02-15T12:13:50;12.50;79.60
9393;DHT22;4736;52.508;13.422;2024-02-15T12:17:13;12.50;79.70
9393;DHT22;4736;52.508;13.422;2024-02-15T12:20:34;12.50;79.50
9393;DHT22;4736;52.508;13.422;2024-02-15T12:23:38;12.50;79.70
9393;DHT22;4736;52.508;13.422;2024-02-15T12:26:43;12.50;79.70
9393;DHT22;4736;52.508;13.422;2024-02-15T12:29:53;12.50;79.50
9393;DHT22;4736;52.508;13.422;2024-02-15T12:33:09;12.50;79.70
9393;DHT22;4736;52.508;13.422;2024-02-15T12:36:13;12.60;79.80
9393;DHT22;4736;52.508;13.422;2024-02-15T12:39:24;12.70;79.60
9393;DHT22;4736;52.508;13.422;2024-02-15T12:42:31;12.70;79.80
9393;DHT22;4736;52.508;13.422;2024-02-15T12:45:36;12.70;79.50
9393;DHT22;4736;52.508;13.422;2024-02-15T12:48:41;12.90;79.40
9393;DHT22;4736;52.508;13.422;2024-02-15T12:51:51;12.90;78.70
9393;DHT22;4736;52.508;13.422;2024-02-15T12:55:13;12.90;78.80
9393;DHT22;4736;52.508;13.422;2024-02-15T12:58:16;13.00;78.70
9393;DHT22;4736;52.508;13.422;2024-02-15T13:01:21;13.00;78.60
9393;DHT22;4736;52.508;13.422;2024-02-15T13:17:27;13.20;78.00
9393;DHT22;4736;52.508;13.422;2024-02-15T13:20:31;13.20;77.50
9393;DHT22;4736;52.508;13.422;2024-02-15T13:23:37;13.30;77.00
9393;DHT22;4736;52.508;13.422;2024-02-15T13:26:40;13.20;77.30
9393;DHT22;4736;52.508;13.422;2024-02-15T13:29:44;13.10;77.30
9393;DHT22;4736;52.508;13.422;2024-02-15T13:32:49;13.10;77.70
9393;DHT22;4736;52.508;13.422;2024-02-15T13:35:53;13.10;77.30
9393;DHT22;4736;52.508;13.422;2024-02-15T13:38:56;13.20;77.20
9393;DHT22;4736;52.508;13.422;2024-02-15T13:42:01;13.30;76.90
9393;DHT22;4736;52.508;13.422;2024-02-15T13:45:06;13.30;76.80
9393;DHT22;4736;52.508;13.422;2024-02-15T13:48:13;13.10;77.00
9393;DHT22;4736;52.508;13.422;2024-02-15T13:51:20;13.30;76.90
9393;DHT22;4736;52.508;13.422;2024-02-15T13:54:25;13.30;76.70
9393;DHT22;4736;52.508;13.422;2024-02-15T13:57:28;13.30;76.80
9393;DHT22;4736;52.508;13.422;2024-02-15T14:00:31;13.20;77.20
9393;DHT22;4736;52.508;13.422;2024-02-15T14:03:38;13.30;77.20
9393;DHT22;4736;52.508;13.422;2024-02-15T14:06:41;13.30;77.00
9393;DHT22;4736;52.508;13.422;2024-02-15T14:09:46;13.40;77.00
9393;DHT22;4736;52.508;13.422;2024-02-15T14:13:04;13.40;77.20
9393;DHT22;4736;52.508;13.422;2024-02-15T14:16:10;13.30;77.60
9393;DHT22;4736;52.508;13.422;2024-02-15T14:19:16;13.40;77.60
9393;DHT22;4736;52.508;13.422;2024-02-15T14:22:19;13.50;77.60
9393;DHT22;4736;52.508;13.422;2024-02-15T14:25:25;13.50;77.40
9393;DHT22;4736;52.508;13.422;2024-02-15T14:28:29;13.30;77.80
9393;DHT22;4736;52.508;13.422;2024-02-15T14:31:32;13.30;77.70
9393;DHT22;4736;52.508;13.422;2024-02-15T14:34:54;13.30;77.80
9393;DHT22;4736;52.508;13.422;2024-02-15T14:37:58;13.30;77.60
9393;DHT22;4736;52.508;13.422;2024-02-15T14:41:03;13.30;77.50
9393;DHT22;4736;52.508;13.422;2024-02-15T14:44:10;13.10;77.70
9393;DHT22;4736;52.508;13.422;2024-02-15T14:47:15;13.10;78.00
9393;DHT22;4736;52.508;13.422;2024-02-15T14:50:19;13.10;78.20
9393;DHT22;4736;52.508;13.422;2024-02-15T14:53:25;13.10;78.10
9393;DHT22;4736;52.508;13.422;2024-02-15T14:56:29;12.90;78.60
9393;DHT22;4736;52.508;13.422;2024-02-15T14:59:39;13.00;78.70
9393;DHT22;4736;52.508;13.422;2024-02-15T15:02:44;12.90;78.60
9393;DHT22;4736;52.508;13.422;2024-02-15T15:05:50;13.00;78.30
9393;DHT22;4736;52.508;13.422;2024-02-15T15:09:11;13.00;78.40
9393;DHT22;4736;52.508;13.422;2024-02-15T15:12:31;12.90;78.50
9393;DHT22;4736;52.508;13.422;2024-02-15T15:15:41;12.90;78.60
9393;DHT22;4736;52.508;13.422;2024-02-15T15:18:46;12.90;78.80
9393;DHT22;4736;52.508;13.422;2024-02-15T15:21:51;12.80;78.90
9393;DHT22;4736;52.508;13.422;2024-02-15T15:24:54;12.90;78.90
9393;DHT22;4736;52.508;13.422;2024-02-15T15:27:58;12.90;78.60
9393;DHT22;4736;52.508;13.422;2024-02-15T15:31:02;13.00;78.70
9393;DHT22;4736;52.508;13.422;2024-02-15T15:34:07;12.90;78.80
9393;DHT22;4736;52.508;13.422;2024-02-15T15:37:13;12.80;79.00
9393;DHT22;4736;52.508;13.422;2024-02-15T15:40:18;12.70;79.30
9393;DHT22;4736;52.508;13.422;2024-02-15T15:43:22;12.70;79.50
9393;DHT22;4736;52.508;13.422;2024-02-15T15:46:25;12.70;79.40
9393;DHT22;4736;52.508;13.422;2024-02-15T15:49:28;12.70;79.50
9393;DHT22;4736;52.508;13.422;2024-02-15T15:52:34;12.60;79.70
9393;DHT22;4736;52.508;13.422;2024-02-15T15:55:39;12.60;79.70
9393;DHT22;4736;52.508;13.422;2024-02-15T15:58:43;12.50;79.80
9393;DHT22;4736;52.508;13.422;2024-02-15T16:01:51;12.50;80.20
9393;DHT22;4736;52.508;13.422;2024-02-15T16:04:54;12.50;80.20
9393;DHT22;4736;52.508;13.422;2024-02-15T16:08:04;12.50;80.30
9393;DHT22;4736;52.508;13.422;2024-02-15T16:11:08;12.50;80.50
9393;DHT22;4736;52.508;13.422;2024-02-15T16:14:11;12.50;80.40
9393;DHT22;4736;52.508;13.422;2024-02-15T16:17:14;12.40;80.70
9393;DHT22;4736;52.508;13.422;2024-02-15T16:20:17;12.50;80.50
9393;DHT22;4736;52.508;13.422;2024-02-15T16:23:21;12.50;80.70
9393;DHT22;4736;52.508;13.422;2024-02-15T16:26:25;12.50;80.80
9393;DHT22;4736;52.508;13.422;2024-02-15T16:29:28;12.40;81.00
9393;DHT22;4736;52.508;13.422;2024-02-15T16:32:31;12.30;81.10
9393;DHT22;4736;52.508;13.422;2024-02-15T16:35:34;12.20;81.50
9393;DHT22;4736;52.508;13.422;2024-02-15T16:38:39;12.30;81.40
9393;DHT22;4736;52.508;13.422;2024-02-15T16:41:46;12.30;81.60
9393;DHT22;4736;52.508;13.422;2024-02-15T16:44:49;12.20;81.70
9393;DHT22;4736;52.508;13.422;2024-02-15T16:47:54;12.20;81.70
9393;DHT22;4736;52.508;13.422;2024-02-15T16:51:01;12.20;82.00
9393;DHT22;4736;52.508;13.422;2024-02-15T16:54:06;12.10;81.90
9393;DHT22;4736;52.508;13.422;2024-02-15T16:57:10;12.10;82.30
9393;DHT22;4736;52.508;13.422;2024-02-15T17:00:16;12.10;82.30
9393;DHT22;4736;52.508;13.422;2024-02-15T17:03:20;12.00;82.80
9393;DHT22;4736;52.508;13.422;2024-02-15T17:06:23;12.00;82.70
9393;DHT22;4736;52.508;13.422;2024-02-15T17:09:28;12.00;82.60
9393;DHT22;4736;52.508;13.422;2024-02-15T17:12:31;12.00;82.60
9393;DHT22;4736;52.508;13.422;2024-02-15T17:15:37;12.10;82.70
9393;DHT22;4736;52.508;13.422;2024-02-15T17:18:40;12.10;82.40
9393;DHT22;4736;52.508;13.422;2024-02-15T17:21:43;12.10;82.50
9393;DHT22;4736;52.508;13.422;2024-02-15T17:24:48;12.10;82.50
9393;DHT22;4736;52.508;13.422;2024-02-15T17:27:52;12.10;82.50
9393;DHT22;4736;52.508;13.422;2024-02-15T17:30:56;12.10;82.50
9393;DHT22;4736;52.508;13.422;2024-02-15T17:34:00;12.00;82.60
9393;DHT22;4736;52.508;13.422;2024-02-15T17:37:04;12.10;82.40
9393;DHT22;4736;52.508;13.422;2024-02-15T17:40:10;12.10;82.20
9393;DHT22;4736;52.508;13.422;2024-02-15T17:43:14;12.10;82.30
9393;DHT22;4736;52.508;13.422;2024-02-15T17:46:17;12.10;82.20
9393;DHT22;4736;52.508;13.422;2024-02-15T17:49:20;12.10;82.20
9393;DHT22;4736;52.508;13.422;2024-02-15T17:52:23;12.10;82.10
9393;DHT22;4736;52.508;13.422;2024-02-15T17:55:28;12.10;82.10
9393;DHT22;4736;52.508;13.422;2024-02-15T17:58:31;12.00;82.30
9393;DHT22;4736;52.508;13.422;2024-02-15T18:01:34;12.00;82.30
9393;DHT22;4736;52.508;13.422;2024-02-15T18:04:39;12.10;82.10
9393;DHT22;4736;52.508;13.422;2024-02-15T18:07:43;12.10;82.00
9393;DHT22;4736;52.508;13.422;2024-02-15T18:10:48;12.00;82.10
9393;DHT22;4736;52.508;13.422;2024-02-15T18:13:51;12.00;82.10
9393;DHT22;4736;52.508;13.422;2024-02-15T18:16:54;12.10;81.90
9393;DHT22;4736;52.508;13.422;2024-02-15T18:19:59;12.10;81.70
9393;DHT22;4736;52.508;13.422;2024-02-15T18:23:02;12.00;81.90
9393;DHT22;4736;52.508;13.422;2024-02-15T18:26:07;12.10;81.80
9393;DHT22;4736;52.508;13.422;2024-02-15T18:29:10;12.10;81.60
9393;DHT22;4736;52.508;13.422;2024-02-15T18:32:15;12.10;81.60
9393;DHT22;4736;52.508;13.422;2024-02-15T18:35:20;12.10;81.60
9393;DHT22;4736;52.508;13.422;2024-02-15T18:38:26;12.00;81.70
9393;DHT22;4736;52.508;13.422;2024-02-15T18:41:31;12.00;81.70
9393;DHT22;4736;52.508;13.422;2024-02-15T18:44:34;11.90;82.10
9393;DHT22;4736;52.508;13.422;2024-02-15T18:47:38;11.90;82.10
9393;DHT22;4736;52.508;13.422;2024-02-15T18:50:43;12.00;82.00
9393;DHT22;4736;52.508;13.422;2024-02-15T18:53:47;11.90;81.90
9393;DHT22;4736;52.508;13.422;2024-02-15T18:56:52;11.90;82.00
9393;DHT22;4736;52.508;13.422;2024-02-15T18:59:57;11.90;82.20
9393;DHT22;4736;52.508;13.422;2024-02-15T19:03:08;12.00;81.90
9393;DHT22;4736;52.508;13.422;2024-02-15T19:06:11;11.90;82.00
9393;DHT22;4736;52.508;13.422;2024-02-15T19:09:15;11.90;81.80
9393;DHT22;4736;52.508;13.422;2024-02-15T19:12:21;12.00;81.90
9393;DHT22;4736;52.508;13.422;2024-02-15T19:15:24;11.90;81.80
9393;DHT22;4736;52.508;13.422;2024-02-15T19:18:29;12.00;81.70
9393;DHT22;4736;52.508;13.422;2024-02-15T19:21:32;12.00;81.50
9393;DHT22;4736;52.508;13.422;2024-02-15T19:24:36;12.00;81.40
9393;DHT22;4736;52.508;13.422;2024-02-15T19:27:40;12.00;81.60
9393;DHT22;4736;52.508;13.422;2024-02-15T19:30:43;12.00;81.50
9393;DHT22;4736;52.508;13.422;2024-02-15T19:33:48;12.00;81.60
9393;DHT22;4736;52.508;13.422;2024-02-15T19:36:58;12.00;81.40
9393;DHT22;4736;52.508;13.422;2024-02-15T19:40:16;11.90;81.70
9393;DHT22;4736;52.508;13.422;2024-02-15T19:43:22;11.90;81.60
9393;DHT22;4736;52.508;13.422;2024-02-15T19:46:34;11.90;81.80
9393;DHT22;4736;52.508;13.422;2024-02-15T19:49:40;11.90;81.90
9393;DHT22;4736;52.508;13.422;2024-02-15T19:52:44;11.70;82.00
9393;DHT22;4736;52.508;13.422;2024-02-15T19:55:49;11.80;82.00
9393;DHT22;4736;52.508;13.422;2024-02-15T19:58:53;11.70;82.30
9393;DHT22;4736;52.508;13.422;2024-02-15T20:01:58;11.80;81.90
9393;DHT22;4736;52.508;13.422;2024-02-15T20:05:01;11.80;82.00
9393;DHT22;4736;52.508;13.422;2024-02-15T20:08:08;11.90;81.80
9393;DHT22;4736;52.508;13.422;2024-02-15T20:11:11;11.90;81.80
9393;DHT22;4736;52.508;13.422;2024-02-15T20:14:16;11.80;81.70